createdAt,value
2022-08-12T00:01:26.955Z,0.80
2022-08-12T00:04:01.963Z,0.73
2022-08-12T00:06:23.151Z,0.70
2022-08-12T00:08:43.956Z,0.60
2022-08-12T00:11:09.675Z,0.80
2022-08-12T00:13:33.167Z,0.90
2022-08-12T00:15:54.821Z,0.98
2022-08-12T00:18:15.178Z,1.07
2022-08-12T00:20:35.658Z,0.90
2022-08-12T00:22:59.594Z,1.10
2022-08-12T00:26:01.431Z,0.82
2022-08-12T00:28:04.174Z,1.23
2022-08-12T00:30:25.137Z,1.20
2022-08-12T00:32:54.384Z,1.30
2022-08-12T00:35:17.512Z,1.38
2022-08-12T00:37:40.676Z,1.20
2022-08-12T00:40:01.597Z,1.05
2022-08-12T00:42:11.965Z,1.38
2022-08-12T00:44:27.990Z,1.48
2022-08-12T00:46:47.210Z,1.00
2022-08-12T00:48:52.095Z,1.05
2022-08-12T00:50:55.699Z,1.30
2022-08-12T00:52:59.514Z,1.30
2022-08-12T00:55:03.540Z,0.65
2022-08-12T00:57:10.567Z,0.90
2022-08-12T00:59:12.570Z,1.20
2022-08-12T01:03:19.829Z,1.08
2022-08-12T01:05:42.731Z,1.08
2022-08-12T01:08:05.282Z,1.08
2022-08-12T01:12:36.776Z,0.68
2022-08-12T01:14:40.865Z,0.80
2022-08-12T01:16:42.813Z,0.80
2022-08-12T01:21:41.136Z,1.20
2022-08-12T01:24:30.176Z,0.90
2022-08-12T01:26:28.611Z,1.08
2022-08-12T01:28:33.601Z,0.88
2022-08-12T01:30:37.545Z,0.90
2022-08-12T01:32:42.965Z,1.00
2022-08-12T01:35:22.611Z,0.95
2022-08-12T01:37:26.671Z,1.15
2022-08-12T01:40:34.040Z,0.82
2022-08-12T01:42:12.919Z,1.15
2022-08-12T01:46:48.086Z,1.00
2022-08-12T01:49:03.156Z,1.00
2022-08-12T01:52:07.475Z,0.60
2022-08-12T01:54:08.283Z,0.82
2022-08-12T01:56:10.825Z,0.98
2022-08-12T01:58:58.767Z,0.80
2022-08-12T02:01:05.571Z,1.23
2022-08-12T02:03:53.326Z,1.20
2022-08-12T02:06:17.452Z,0.95
2022-08-12T02:08:53.289Z,1.30
2022-08-12T02:11:30.186Z,1.13
2022-08-12T02:13:49.635Z,1.20
2022-08-12T02:16:27.950Z,1.00
2022-08-12T02:18:51.141Z,1.40
2022-08-12T02:21:05.677Z,1.02
2022-08-12T02:23:10.956Z,1.50
2022-08-12T02:25:18.071Z,1.65
2022-08-12T02:27:21.937Z,1.02
2022-08-12T02:29:24.780Z,1.08
2022-08-12T02:31:29.086Z,0.70
2022-08-12T02:33:33.037Z,1.10
2022-08-12T02:35:36.490Z,0.95
2022-08-12T02:37:40.789Z,1.02
2022-08-12T02:39:49.710Z,0.98
2022-08-12T02:41:54.285Z,0.95
2022-08-12T02:44:00.338Z,1.10
2022-08-12T02:46:09.321Z,0.95
2022-08-12T02:48:30.134Z,1.20
2022-08-12T02:50:36.623Z,0.77
2022-08-12T02:52:40.180Z,0.88
2022-08-12T02:54:45.707Z,1.52
2022-08-12T02:56:50.973Z,1.15
2022-08-12T02:58:53.502Z,0.98
2022-08-12T03:00:55.749Z,1.52
2022-08-12T03:03:04.566Z,1.40
2022-08-12T03:05:06.681Z,1.25
2022-08-12T03:09:16.500Z,1.42
2022-08-12T03:11:25.699Z,1.45
2022-08-12T03:13:29.329Z,1.27
2022-08-12T03:15:31.300Z,1.45
2022-08-12T03:17:44.991Z,1.27
2022-08-12T03:20:09.342Z,1.42
2022-08-12T03:22:14.675Z,1.52
2022-08-12T03:24:18.651Z,1.08
2022-08-12T03:26:25.817Z,1.92
2022-08-12T03:31:06.167Z,1.80
2022-08-12T03:33:09.234Z,1.92
2022-08-12T03:35:38.366Z,2.25
2022-08-12T03:37:37.290Z,1.40
2022-08-12T03:39:39.219Z,1.48
2022-08-12T03:42:06.815Z,1.55
2022-08-12T03:44:50.561Z,1.92
2022-08-12T03:47:28.407Z,1.45
2022-08-12T03:49:48.854Z,1.33
2022-08-12T03:52:10.421Z,1.08
2022-08-12T03:54:31.087Z,1.70
2022-08-12T03:56:52.107Z,1.65
2022-08-12T03:59:13.586Z,1.35
2022-08-12T04:01:15.435Z,1.45
2022-08-12T04:03:38.280Z,1.70
2022-08-12T04:05:55.866Z,1.63
2022-08-12T04:08:03.501Z,1.73
2022-08-12T04:10:06.457Z,1.58
2022-08-12T04:12:35.732Z,1.60
2022-08-12T04:16:54.921Z,1.60
2022-08-12T04:18:57.185Z,1.65
2022-08-12T04:20:58.897Z,1.45
2022-08-12T04:23:01.254Z,1.70
2022-08-12T04:25:03.398Z,1.65
2022-08-12T04:27:08.606Z,1.35
2022-08-12T04:29:10.762Z,1.70
2022-08-12T04:31:14.130Z,1.30
2022-08-12T04:33:16.079Z,1.45
2022-08-12T04:35:18.129Z,1.67
2022-08-12T04:37:20.017Z,1.60
2022-08-12T04:39:22.776Z,1.67
2022-08-12T04:44:01.320Z,1.45
2022-08-12T04:46:02.997Z,1.73
2022-08-12T04:48:21.044Z,1.48
2022-08-12T04:50:33.786Z,1.30
2022-08-12T04:52:40.307Z,1.83
2022-08-12T04:54:43.813Z,1.88
2022-08-12T04:56:45.912Z,1.60
2022-08-12T04:59:06.311Z,1.85
2022-08-12T05:01:08.771Z,2.00
2022-08-12T05:03:11.600Z,2.05
2022-08-12T05:05:20.246Z,2.05
2022-08-12T05:07:23.038Z,1.85
2022-08-12T05:09:24.963Z,1.10
2022-08-12T05:12:02.817Z,1.88
2022-08-12T05:14:05.730Z,1.95
2022-08-12T05:16:09.208Z,1.77
2022-08-12T05:18:19.358Z,2.10
2022-08-12T05:20:22.383Z,2.05
2022-08-12T05:22:24.640Z,1.67
2022-08-12T05:24:26.460Z,1.92
2022-08-12T05:26:29.477Z,1.50
2022-08-12T05:28:31.238Z,1.73
2022-08-12T05:30:34.393Z,1.85
2022-08-12T05:32:37.180Z,1.98
2022-08-12T05:34:39.061Z,1.50
2022-08-12T05:36:45.868Z,1.83
2022-08-12T05:38:56.518Z,2.10
2022-08-12T05:40:59.477Z,1.85
2022-08-12T05:43:02.283Z,2.72
2022-08-12T05:45:04.530Z,2.20
2022-08-12T05:47:07.106Z,2.38
2022-08-12T05:49:09.371Z,16.90
2022-08-12T05:51:11.340Z,7.30
2022-08-12T05:53:13.411Z,9.70
2022-08-12T05:55:15.393Z,2.95
2022-08-12T05:57:17.629Z,3.08
2022-08-12T05:59:21.630Z,3.45
2022-08-12T06:02:10.330Z,2.55
2022-08-12T06:03:47.043Z,2.47
2022-08-12T06:05:54.385Z,2.53
2022-08-12T06:08:01.329Z,2.05
2022-08-12T06:10:04.965Z,2.22
2022-08-12T06:14:12.102Z,1.67
2022-08-12T06:16:18.458Z,1.50
2022-08-12T06:18:20.288Z,2.42
2022-08-12T06:20:29.299Z,2.28
2022-08-12T06:22:31.974Z,2.53
2022-08-12T06:24:33.778Z,1.80
2022-08-12T06:26:35.518Z,2.33
2022-08-12T06:28:44.282Z,2.17
2022-08-12T06:30:57.210Z,1.50
2022-08-12T06:33:22.640Z,2.00
2022-08-12T06:35:48.427Z,2.45
2022-08-12T06:37:56.825Z,2.85
2022-08-12T06:40:04.046Z,3.42
2022-08-12T06:44:42.847Z,3.17
2022-08-12T06:46:45.740Z,3.03
2022-08-12T06:48:50.262Z,3.13
2022-08-12T06:50:59.319Z,2.58
2022-08-12T06:53:06.239Z,2.47
2022-08-12T06:55:11.962Z,2.30
2022-08-12T06:58:02.033Z,2.00
2022-08-12T06:59:54.627Z,1.67
2022-08-12T07:01:57.029Z,1.38
2022-08-12T07:04:14.363Z,1.33
2022-08-12T07:08:43.431Z,0.70
2022-08-12T07:10:59.353Z,0.90
2022-08-12T07:13:03.351Z,0.80
2022-08-12T07:15:05.958Z,0.80
2022-08-12T07:17:07.837Z,0.40
2022-08-12T07:19:09.614Z,0.80
2022-08-12T07:21:12.896Z,0.55
2022-08-12T07:25:58.967Z,0.60
2022-08-12T07:28:16.764Z,0.57
2022-08-12T07:30:22.334Z,1.17
2022-08-12T07:32:29.542Z,0.80
2022-08-12T07:34:44.325Z,0.88
2022-08-12T07:36:49.386Z,0.80
2022-08-12T07:38:51.718Z,0.65
2022-08-12T07:40:55.830Z,0.50
2022-08-12T07:42:57.693Z,0.85
2022-08-12T07:45:00.041Z,0.45
2022-08-12T07:47:03.264Z,0.75
2022-08-12T07:49:14.548Z,0.70
2022-08-12T07:51:25.307Z,0.40
2022-08-12T07:53:50.157Z,0.45
2022-08-12T07:56:02.322Z,0.30
2022-08-12T07:58:04.122Z,0.60
2022-08-12T08:00:06.743Z,0.80
2022-08-12T08:02:09.994Z,0.52
2022-08-12T08:04:34.085Z,0.60
2022-08-12T08:06:36.403Z,0.57
2022-08-12T08:08:38.657Z,0.52
2022-08-12T08:10:41.949Z,0.30
2022-08-12T08:15:03.395Z,0.60
2022-08-12T08:17:06.614Z,0.47
2022-08-12T08:19:16.467Z,0.60
2022-08-12T08:21:22.038Z,0.50
2022-08-12T08:23:56.118Z,0.40
2022-08-12T08:25:58.930Z,0.50
2022-08-12T08:30:16.484Z,0.30
2022-08-12T08:32:18.329Z,0.52
2022-08-12T08:34:40.223Z,0.50
2022-08-12T08:36:45.477Z,0.47
2022-08-12T08:38:58.116Z,0.60
2022-08-12T08:42:16.577Z,0.30
2022-08-12T08:43:47.734Z,0.60
2022-08-12T08:45:50.218Z,0.45
2022-08-12T08:49:57.584Z,0.50
2022-08-12T08:52:02.835Z,0.30
2022-08-12T08:54:06.826Z,0.35
2022-08-12T08:56:10.998Z,0.60
2022-08-12T08:58:15.467Z,0.40
2022-08-12T09:00:20.558Z,0.45
2022-08-12T09:02:22.489Z,0.60
2022-08-12T09:05:12.658Z,0.43
2022-08-12T09:06:53.371Z,0.30
2022-08-12T09:08:56.233Z,0.43
2022-08-12T09:16:02.486Z,0.30
2022-08-12T09:18:08.987Z,0.40
2022-08-12T09:20:16.105Z,0.68
2022-08-12T09:22:20.565Z,0.50
2022-08-12T09:24:22.751Z,0.52
2022-08-12T09:26:30.064Z,0.32
2022-08-12T09:30:50.717Z,0.55
2022-08-12T09:33:04.205Z,0.40
2022-08-12T09:35:21.932Z,0.50
2022-08-12T09:37:28.525Z,0.40
2022-08-12T09:40:02.372Z,0.65
2022-08-12T09:42:39.209Z,0.45
2022-08-12T09:45:18.743Z,0.30
2022-08-12T09:47:28.866Z,0.30
2022-08-12T09:49:37.212Z,0.52
2022-08-12T09:51:44.405Z,0.30
2022-08-12T09:54:10.673Z,0.40
2022-08-12T09:56:59.580Z,0.55
2022-08-12T09:58:58.901Z,0.30
2022-08-12T10:01:15.155Z,0.43
2022-08-12T10:03:31.832Z,0.50
2022-08-12T10:06:20.550Z,0.68
2022-08-12T10:08:01.248Z,0.30
2022-08-12T10:10:04.701Z,0.40
2022-08-12T10:12:31.497Z,0.30
2022-08-12T10:14:36.616Z,0.30
2022-08-12T10:16:43.794Z,0.30
2022-08-12T10:18:52.426Z,0.52
2022-08-12T10:20:54.604Z,0.30
2022-08-12T10:25:22.743Z,0.63
2022-08-12T10:28:04.951Z,0.45
2022-08-12T10:30:41.863Z,0.40
2022-08-12T10:32:45.436Z,0.50
2022-08-12T10:34:53.429Z,0.25
2022-08-12T10:37:22.752Z,0.45
2022-08-12T10:40:02.094Z,0.40
2022-08-12T10:42:04.418Z,0.30
2022-08-12T10:44:06.329Z,0.40
2022-08-12T10:46:17.626Z,0.30
2022-08-12T10:48:27.089Z,0.20
2022-08-12T10:51:01.044Z,0.35
2022-08-12T10:53:06.006Z,0.30
2022-08-12T10:55:13.366Z,0.40
2022-08-12T10:57:18.618Z,0.30
2022-08-12T10:59:58.528Z,0.20
2022-08-12T11:04:32.100Z,0.20
2022-08-12T11:04:41.233Z,0.30
2022-08-12T11:08:34.303Z,0.20
2022-08-12T11:10:00.597Z,0.40
2022-08-12T11:12:55.744Z,0.25
2022-08-12T11:14:49.828Z,0.30
2022-08-12T11:17:34.494Z,0.30
2022-08-12T11:19:33.168Z,0.35
2022-08-12T11:21:57.931Z,0.52
2022-08-12T11:24:02.511Z,0.22
2022-08-12T11:26:10.145Z,0.17
2022-08-12T11:28:13.413Z,0.28
2022-08-12T11:30:31.397Z,0.30
2022-08-12T11:32:38.796Z,0.20
2022-08-12T11:34:53.637Z,0.20
2022-08-12T11:37:04.966Z,0.30
2022-08-12T11:39:07.130Z,0.20
2022-08-12T11:41:10.248Z,0.40
2022-08-12T11:43:19.846Z,0.30
2022-08-12T11:45:22.147Z,0.20
2022-08-12T11:47:25.173Z,0.30
2022-08-12T11:49:32.082Z,0.20
2022-08-12T11:51:36.387Z,0.40
2022-08-12T11:53:58.129Z,0.30
2022-08-12T11:56:03.984Z,0.22
2022-08-12T11:58:38.306Z,0.20
2022-08-12T12:03:18.205Z,0.30
2022-08-12T12:05:28.417Z,0.30
2022-08-12T12:08:38.164Z,0.25
2022-08-12T12:10:09.356Z,0.20
2022-08-12T12:12:19.297Z,0.30
2022-08-12T12:14:38.269Z,0.25
2022-08-12T12:16:48.133Z,0.30
2022-08-12T12:18:52.089Z,0.30
2022-08-12T12:21:05.492Z,0.30
2022-08-12T12:23:29.086Z,0.30
2022-08-12T12:25:59.597Z,0.30
2022-08-12T12:28:05.118Z,0.30
2022-08-12T12:30:19.315Z,0.20
2022-08-12T12:32:31.038Z,0.22
2022-08-12T12:34:32.945Z,0.22
2022-08-12T12:36:35.469Z,0.20
2022-08-12T12:38:37.204Z,0.38
2022-08-12T12:40:43.887Z,0.30
2022-08-12T12:42:57.797Z,0.25
2022-08-12T12:45:03.561Z,0.40
2022-08-12T12:47:28.788Z,0.30
2022-08-12T12:49:31.236Z,0.43
2022-08-12T12:51:48.608Z,0.25
2022-08-12T12:54:08.653Z,0.20
2022-08-12T12:56:15.839Z,0.25
2022-08-12T12:58:18.190Z,0.20
2022-08-12T13:00:21.372Z,0.20
2022-08-12T13:02:31.576Z,0.20
2022-08-12T13:04:34.992Z,0.20
2022-08-12T13:06:37.112Z,0.40
2022-08-12T13:08:39.323Z,0.30
2022-08-12T13:10:50.166Z,0.40
2022-08-12T13:12:53.514Z,0.28
2022-08-12T13:14:55.326Z,0.30
2022-08-12T13:17:02.566Z,0.20
2022-08-12T13:19:08.403Z,0.28
2022-08-12T13:21:15.815Z,0.20
2022-08-12T13:23:38.592Z,0.20
2022-08-12T13:28:21.498Z,0.30
2022-08-12T13:30:24.866Z,0.20
2022-08-12T13:32:31.353Z,0.20
2022-08-12T13:34:35.731Z,0.20
2022-08-12T13:36:40.952Z,0.40
2022-08-12T13:38:54.367Z,0.28
2022-08-12T13:41:03.549Z,0.20
2022-08-12T13:43:09.640Z,0.20
2022-08-12T13:45:18.502Z,0.20
2022-08-12T13:47:24.956Z,0.20
2022-08-12T13:49:55.035Z,0.30
2022-08-12T13:51:55.011Z,0.40
2022-08-12T13:54:04.974Z,0.30
2022-08-12T13:56:14.706Z,0.20
2022-08-12T13:58:19.801Z,0.20
2022-08-12T14:00:34.162Z,0.20
2022-08-12T14:02:41.152Z,0.20
2022-08-12T14:04:45.468Z,0.50
2022-08-12T14:07:03.862Z,0.30
2022-08-12T14:09:17.376Z,0.28
2022-08-12T14:11:28.128Z,0.20
2022-08-12T14:14:04.150Z,0.30
2022-08-12T14:16:14.352Z,0.20
2022-08-12T14:18:21.792Z,0.30
2022-08-12T14:20:26.472Z,0.20
2022-08-12T14:22:36.076Z,0.30
2022-08-12T14:28:02.634Z,0.10
2022-08-12T14:30:04.610Z,0.13
2022-08-12T14:32:16.405Z,0.20
2022-08-12T14:34:33.494Z,0.30
2022-08-12T14:36:42.764Z,0.20
2022-08-12T14:38:46.237Z,0.20
2022-08-12T14:40:56.952Z,0.25
2022-08-12T14:42:59.199Z,0.30
2022-08-12T14:45:02.157Z,0.47
2022-08-12T14:47:07.639Z,0.20
2022-08-12T14:50:37.454Z,0.38
2022-08-12T14:52:44.000Z,0.20
2022-08-12T14:59:23.308Z,0.22
2022-08-12T15:01:44.655Z,0.20
2022-08-12T15:03:57.030Z,0.20
2022-08-12T15:06:39.462Z,0.20
2022-08-12T15:08:33.399Z,0.20
2022-08-12T15:10:42.615Z,0.30
2022-08-12T15:12:51.765Z,0.30
2022-08-12T15:14:56.592Z,0.20
2022-08-12T15:17:00.717Z,0.20
2022-08-12T15:19:11.267Z,0.20
2022-08-12T15:21:25.800Z,0.10
2022-08-12T15:23:55.197Z,0.20
2022-08-12T15:26:03.390Z,0.17
2022-08-12T15:28:20.701Z,0.20
2022-08-12T15:30:24.803Z,0.30
2022-08-12T15:32:32.068Z,0.20
2022-08-12T15:34:38.743Z,0.22
2022-08-12T15:36:55.244Z,0.17
2022-08-12T15:38:57.586Z,0.10
2022-08-12T15:41:00.130Z,0.30
2022-08-12T15:43:04.257Z,0.20
2022-08-12T15:45:10.183Z,0.30
2022-08-12T15:47:26.802Z,0.10
2022-08-12T15:49:42.860Z,0.10
2022-08-12T15:51:59.198Z,0.30
2022-08-12T15:54:33.933Z,0.20
2022-08-12T15:56:30.460Z,0.10
2022-08-12T15:58:33.882Z,0.13
2022-08-12T16:00:38.165Z,0.50
2022-08-12T16:02:50.609Z,0.17
2022-08-12T16:04:52.969Z,0.10
2022-08-12T16:07:11.584Z,0.40
2022-08-12T16:09:21.548Z,0.10
2022-08-12T16:11:23.650Z,0.10
2022-08-12T16:13:34.628Z,0.10
2022-08-12T16:15:42.325Z,0.17
2022-08-12T16:18:18.805Z,0.20
2022-08-12T16:20:22.449Z,0.20
2022-08-12T16:22:34.859Z,0.20
2022-08-12T16:24:43.562Z,0.10
2022-08-12T16:26:45.449Z,0.10
2022-08-12T16:28:56.073Z,0.10
2022-08-12T16:30:59.894Z,0.15
2022-08-12T16:33:11.300Z,0.10
2022-08-12T16:35:16.511Z,0.10
2022-08-12T16:37:18.651Z,0.10
2022-08-12T16:39:24.176Z,0.10
2022-08-12T16:41:28.177Z,0.20
2022-08-12T16:43:33.519Z,0.13
2022-08-12T16:46:05.319Z,0.10
2022-08-12T16:48:01.565Z,0.10
2022-08-12T16:50:07.810Z,0.10
2022-08-12T16:52:12.714Z,0.20
2022-08-12T16:54:18.970Z,0.10
2022-08-12T16:56:20.720Z,0.10
2022-08-12T16:58:30.570Z,0.10
2022-08-12T17:00:32.483Z,0.13
2022-08-12T17:02:40.698Z,0.10
2022-08-12T17:04:52.928Z,0.10
2022-08-12T17:06:54.996Z,0.10
2022-08-12T17:09:02.997Z,0.00
2022-08-12T17:11:08.404Z,0.10
2022-08-12T17:13:10.762Z,0.10
2022-08-12T17:15:50.982Z,0.10
2022-08-12T17:20:29.733Z,0.10
2022-08-12T17:22:06.694Z,0.10
2022-08-12T17:24:17.090Z,0.10
2022-08-12T17:26:19.180Z,0.00
2022-08-12T17:28:24.941Z,0.10
2022-08-12T17:30:27.522Z,0.00
2022-08-12T17:32:33.596Z,0.10
2022-08-12T17:34:55.032Z,0.10
2022-08-12T17:37:04.870Z,0.00
2022-08-12T17:39:09.383Z,0.10
2022-08-12T17:41:22.962Z,0.10
2022-08-12T17:43:55.860Z,0.10
2022-08-12T17:45:56.147Z,0.10
2022-08-12T17:48:05.603Z,0.10
2022-08-12T17:50:08.571Z,0.10
2022-08-12T17:52:20.891Z,0.10
2022-08-12T17:54:23.630Z,0.08
2022-08-12T17:56:31.889Z,0.10
2022-08-12T17:58:37.956Z,0.10
2022-08-12T18:00:44.159Z,0.10
2022-08-12T18:02:47.755Z,0.10
2022-08-12T18:05:04.526Z,0.10
2022-08-12T18:07:08.576Z,0.10
2022-08-12T18:09:14.772Z,0.10
2022-08-12T18:12:05.833Z,0.10
2022-08-12T18:13:57.259Z,0.10
2022-08-12T18:18:16.653Z,0.10
2022-08-12T18:20:19.409Z,0.10
2022-08-12T18:22:30.483Z,0.10
2022-08-12T18:24:33.405Z,0.10
2022-08-12T18:26:39.886Z,0.20
2022-08-12T18:28:44.462Z,0.20
2022-08-12T18:30:52.442Z,0.10
2022-08-12T18:32:59.539Z,0.10
2022-08-12T18:35:10.495Z,0.10
2022-08-12T18:37:41.151Z,0.10
2022-08-12T18:39:54.348Z,0.10
2022-08-12T18:41:58.389Z,0.17
2022-08-12T18:44:09.456Z,0.17
2022-08-12T18:46:13.484Z,0.20
2022-08-12T18:48:16.539Z,0.22
2022-08-12T18:50:18.326Z,0.10
2022-08-12T18:56:33.376Z,0.10
2022-08-12T18:58:59.522Z,0.10
2022-08-12T19:01:02.779Z,0.10
2022-08-12T19:03:09.144Z,0.10
2022-08-12T19:05:54.539Z,0.20
2022-08-12T19:08:00.578Z,0.10
2022-08-12T19:10:03.895Z,0.13
2022-08-12T19:12:30.361Z,0.13
2022-08-12T19:14:42.133Z,0.10
2022-08-12T19:16:44.040Z,0.30
2022-08-12T19:18:49.263Z,0.40
2022-08-12T19:20:51.001Z,0.30
2022-08-12T19:22:59.663Z,0.10
2022-08-12T19:26:01.312Z,0.10
2022-08-12T19:27:51.042Z,0.30
2022-08-12T19:30:07.248Z,0.20
2022-08-12T19:32:13.757Z,0.50
2022-08-12T19:36:40.442Z,0.40
2022-08-12T19:38:46.839Z,0.15
2022-08-12T19:41:02.894Z,0.17
2022-08-12T19:43:20.482Z,0.20
2022-08-12T19:45:22.765Z,0.20
2022-08-12T19:47:24.603Z,0.43
2022-08-12T19:49:27.143Z,0.20
2022-08-12T19:51:40.575Z,0.20
2022-08-12T19:53:57.278Z,0.40
2022-08-12T19:55:59.965Z,0.38
2022-08-12T19:58:03.229Z,0.30
2022-08-12T20:00:07.816Z,0.20
2022-08-12T20:02:16.011Z,0.20
2022-08-12T20:04:18.438Z,0.20
2022-08-12T20:06:24.366Z,0.20
2022-08-12T20:08:34.351Z,0.20
2022-08-12T20:10:42.793Z,0.20
2022-08-12T20:13:10.156Z,0.20
2022-08-12T20:15:10.463Z,0.20
2022-08-12T20:17:12.506Z,0.20
2022-08-12T20:19:15.992Z,0.20
2022-08-12T20:21:17.981Z,0.17
2022-08-12T20:23:37.152Z,0.20
2022-08-12T20:25:52.495Z,0.30
2022-08-12T20:28:02.840Z,0.30
2022-08-12T20:30:06.193Z,0.30
2022-08-12T20:32:09.450Z,0.30
2022-08-12T20:34:12.083Z,0.20
2022-08-12T20:36:40.606Z,0.40
2022-08-12T20:38:40.367Z,0.20
2022-08-12T20:40:42.553Z,0.20
2022-08-12T20:42:50.580Z,0.28
2022-08-12T20:44:54.116Z,0.25
2022-08-12T20:47:19.627Z,0.22
2022-08-12T20:49:23.854Z,0.20
2022-08-12T20:51:28.177Z,0.30
2022-08-12T20:53:57.974Z,0.22
2022-08-12T20:56:14.274Z,0.30
2022-08-12T20:58:21.765Z,0.20
2022-08-12T21:00:28.084Z,0.20
2022-08-12T21:02:30.778Z,0.20
2022-08-12T21:04:51.864Z,0.20
2022-08-12T21:07:09.254Z,0.30
2022-08-12T21:09:11.966Z,0.17
2022-08-12T21:11:13.862Z,0.25
2022-08-12T21:13:15.619Z,0.20
2022-08-12T21:15:30.353Z,0.20
2022-08-12T21:18:00.710Z,0.30
2022-08-12T21:20:22.516Z,0.20
2022-08-12T21:22:29.386Z,0.20
2022-08-12T21:24:31.661Z,0.20
2022-08-12T21:26:37.090Z,0.20
2022-08-12T21:28:42.202Z,0.20
2022-08-12T21:32:34.738Z,0.20
2022-08-12T21:33:32.176Z,0.20
2022-08-12T21:36:34.448Z,0.20
2022-08-12T21:41:42.809Z,0.20
2022-08-12T21:45:45.640Z,0.30
2022-08-12T21:46:57.137Z,0.25
2022-08-12T21:49:40.517Z,0.20
2022-08-12T21:51:49.608Z,0.20
2022-08-12T21:54:07.037Z,0.20
2022-08-12T21:56:34.938Z,0.30
2022-08-12T21:58:43.279Z,0.17
2022-08-12T22:00:47.210Z,0.30
2022-08-12T22:03:15.411Z,0.30
2022-08-12T22:05:41.807Z,0.40
2022-08-12T22:07:58.056Z,0.35
2022-08-12T22:10:02.923Z,0.30
2022-08-12T22:12:26.511Z,0.30
2022-08-12T22:14:32.729Z,0.40
2022-08-12T22:16:57.108Z,0.50
2022-08-12T22:19:02.579Z,0.43
2022-08-12T22:21:24.821Z,0.30
2022-08-12T22:24:04.281Z,0.40
2022-08-12T22:26:12.800Z,0.30
2022-08-12T22:28:52.541Z,0.32
2022-08-12T22:37:46.257Z,0.20
2022-08-12T22:39:49.124Z,0.20
2022-08-12T22:42:09.694Z,0.30
2022-08-12T22:44:31.094Z,0.30
2022-08-12T22:47:03.439Z,0.30
2022-08-12T22:49:06.630Z,0.20
2022-08-12T22:51:11.077Z,0.30
2022-08-12T22:53:16.468Z,0.25
2022-08-12T22:55:23.030Z,0.40
2022-08-12T22:57:53.184Z,0.40
2022-08-12T22:59:57.489Z,0.50
2022-08-12T23:02:01.907Z,0.32
2022-08-12T23:04:07.707Z,0.30
2022-08-12T23:06:12.102Z,0.45
2022-08-12T23:08:17.954Z,0.38
2022-08-12T23:10:21.317Z,0.30
2022-08-12T23:12:48.922Z,0.30
2022-08-12T23:14:50.968Z,0.30
2022-08-12T23:16:55.995Z,0.45
2022-08-12T23:19:17.608Z,0.43
2022-08-12T23:21:22.232Z,0.40
2022-08-12T23:23:25.597Z,0.25
2022-08-12T23:25:32.546Z,0.35
2022-08-12T23:28:30.126Z,0.40
2022-08-12T23:30:34.939Z,0.60
2022-08-12T23:32:40.918Z,0.63
2022-08-12T23:34:47.782Z,0.35
2022-08-12T23:36:51.386Z,0.40
2022-08-12T23:38:58.699Z,0.50
2022-08-12T23:41:06.106Z,0.40
2022-08-12T23:43:12.411Z,0.80
2022-08-12T23:45:20.521Z,0.40
2022-08-12T23:47:33.175Z,0.50
2022-08-12T23:49:57.571Z,0.30
2022-08-12T23:52:07.117Z,0.75
2022-08-12T23:54:10.899Z,0.38
2022-08-12T23:56:38.876Z,0.40
2022-08-12T23:58:57.529Z,0.32
